| time (UTC) | temp F | wind direction | speed MPH | gust MPH | rain 1hr in | rain 24hr in | rain mn in | humidity % | barometer mb |
| 20260504044544 | 71 | 360 | 1.0 | 3.0 | 0.00 | 0.02 | 0.00 | 76 | 1013.0 |
| 20260504043041 | 71 | 0 | 0.0 | 3.0 | 0.00 | 0.02 | 0.00 | 76 | 1012.9 |
| 20260504041537 | 72 | 360 | 1.0 | 3.0 | 0.00 | 0.02 | 0.00 | 76 | 1013.3 |
| 20260504040041 | 72 | 360 | 0.0 | 4.0 | 0.00 | 0.02 | 0.00 | 75 | 1013.3 |
| 20260504034542 | 72 | 360 | 1.0 | 4.0 | 0.00 | 0.05 | 0.02 | 75 | 1013.4 |
| 20260504033049 | 73 | 360 | 1.0 | 5.0 | 0.00 | 0.05 | 0.02 | 74 | 1013.4 |
| 20260504031543 | 73 | 0 | 1.0 | 4.0 | 0.00 | 0.05 | 0.02 | 74 | 1013.4 |
| 20260504030041 | 73 | 0 | 0.0 | 2.0 | 0.00 | 0.05 | 0.02 | 74 | 1013.1 |
| 20260504024554 | 74 | 0 | 0.0 | 4.0 | 0.00 | 0.06 | 0.02 | 74 | 1013.2 |
| 20260504023046 | 73 | 360 | 0.0 | 4.0 | 0.00 | 0.06 | 0.02 | 73 | 1013.0 |
| 20260504021550 | 73 | 0 | 0.0 | 3.0 | 0.00 | 0.06 | 0.02 | 71 | 1012.8 |
| 20260504020042 | 73 | 0 | 0.0 | 2.0 | 0.00 | 0.06 | 0.02 | 70 | 1012.7 |
| 20260504014542 | 73 | 0 | 0.0 | 0.0 | 0.00 | 0.06 | 0.02 | 70 | 1012.4 |
| 20260504013045 | 73 | 0 | 0.0 | 3.0 | 0.00 | 0.06 | 0.02 | 70 | 1012.3 |
| 20260504011544 | 73 | 0 | 0.0 | 4.0 | 0.00 | 0.06 | 0.02 | 69 | 1012.1 |
| 20260504010044 | 74 | 0 | 0.0 | 4.0 | 0.00 | 0.06 | 0.02 | 69 | 1011.9 |
| 20260504004558 | 74 | 360 | 2.0 | 8.0 | 0.00 | 0.06 | 0.02 | 69 | 1011.6 |
| 20260504003041 | 74 | 360 | 0.0 | 3.0 | 0.00 | 0.06 | 0.02 | 69 | 1011.6 |
| 20260504001543 | 74 | 360 | 1.0 | 6.0 | 0.00 | 0.06 | 0.02 | 69 | 1011.4 |
| 20260504000037 | 75 | 360 | 3.0 | 8.0 | 0.00 | 0.06 | 0.02 | 68 | 1011.4 |
| 20260503234543 | 75 | 9 | 4.0 | 11.0 | 0.00 | 0.06 | 0.02 | 66 | 1011.1 |
| 20260503233040 | 76 | 360 | 1.0 | 8.0 | 0.00 | 0.06 | 0.02 | 65 | 1011.3 |
| 20260503231549 | 77 | 9 | 1.0 | 8.0 | 0.00 | 0.06 | 0.02 | 63 | 1011.1 |
| 20260503230040 | 79 | 37 | 0.0 | 3.0 | 0.00 | 0.06 | 0.02 | 61 | 1011.1 |
| 20260503224544 | 79 | 0 | 0.0 | 0.0 | 0.00 | 0.09 | 0.02 | 62 | 1011.0 |
| 20260503223041 | 78 | 0 | 0.0 | 3.0 | 0.00 | 0.09 | 0.02 | 61 | 1011.0 |
| 20260503221543 | 78 | 0 | 0.0 | 2.0 | 0.00 | 0.09 | 0.02 | 61 | 1010.9 |
| 20260503220043 | 79 | 0 | 0.0 | 3.0 | 0.00 | 0.09 | 0.02 | 62 | 1011.1 |
| 20260503214541 | 79 | 0 | 0.0 | 3.0 | 0.00 | 0.16 | 0.02 | 60 | 1011.0 |
| 20260503213037 | 80 | 0 | 0.0 | 4.0 | 0.00 | 0.16 | 0.02 | 58 | 1011.0 |
| 20260503211546 | 80 | 0 | 0.0 | 3.0 | 0.00 | 0.16 | 0.02 | 57 | 1011.2 |
| 20260503210043 | 80 | 0 | 0.0 | 3.0 | 0.00 | 0.16 | 0.02 | 56 | 1011.1 |
| 20260503204538 | 80 | 0 | 1.0 | 5.0 | 0.00 | 0.20 | 0.02 | 56 | 1011.4 |
| 20260503203040 | 80 | 174 | 1.0 | 4.0 | 0.00 | 0.20 | 0.02 | 56 | 1011.7 |
| 20260503201537 | 79 | 5 | 0.0 | 5.0 | 0.00 | 0.20 | 0.02 | 60 | 1011.6 |
| 20260503200036 | 80 | 33 | 1.0 | 7.0 | 0.00 | 0.20 | 0.02 | 59 | 1012.0 |
| 20260503194548 | 79 | 69 | 2.0 | 4.0 | 0.00 | 0.68 | 0.02 | 60 | 1012.0 |
| 20260503193043 | 80 | 87 | 2.0 | 6.0 | 0.00 | 0.68 | 0.02 | 59 | 1012.2 |
| 20260503191540 | 78 | 92 | 1.0 | 6.0 | 0.00 | 0.68 | 0.02 | 62 | 1012.5 |
| 20260503190044 | 79 | 105 | 1.0 | 7.0 | 0.00 | 0.68 | 0.02 | 62 | 1012.9 |
| 20260503184544 | 78 | 68 | 2.0 | 7.0 | 0.00 | 0.68 | 0.02 | 65 | 1013.2 |
| 20260503183041 | 77 | 78 | 1.0 | 4.0 | 0.00 | 0.68 | 0.02 | 66 | 1013.4 |
| 20260503181540 | 76 | 96 | 1.0 | 6.0 | 0.00 | 0.68 | 0.02 | 68 | 1013.5 |
| 20260503180040 | 76 | 116 | 1.0 | 6.0 | 0.00 | 0.68 | 0.02 | 68 | 1013.6 |
| 20260503174601 | 76 | 0 | 0.0 | 6.0 | 0.00 | 0.68 | 0.02 | 68 | 1013.7 |
| 20260503173046 | 76 | 46 | 1.0 | 8.0 | 0.00 | 0.68 | 0.02 | 69 | 1013.9 |
| 20260503171541 | 75 | 68 | 2.0 | 4.0 | 0.00 | 0.68 | 0.02 | 69 | 1013.9 |
| 20260503081547 | 66 | 0 | 0.0 | 7.0 | 0.00 | 0.67 | 0.01 | 92 | 1011.1 |
| 20260503071542 | 67 | 0 | 1.0 | 9.0 | 0.01 | 0.67 | 0.01 | 93 | 1010.1 |
| 20260503054537 | 68 | 9 | 0.0 | 10.0 | 0.00 | 0.66 | 0.00 | 92 | 1010.6 |
| 20260503053043 | 69 | 9 | 1.0 | 8.0 | 0.00 | 0.66 | 0.00 | 92 | 1011.0 |